CFG14J ESGG-EDDF
Flight info
| Callsign | CFG14J |
|---|---|
| Flight time | N/A |
| Altitude | 35000 |
| Route | TOPLA L996 ERNOV DCT NIKDA/N0453F360 DCT NOBRI DCT BUMIL DCT HLZ DCT RIMET/N0435F310 T157 KOKEB/N0386F230 T157 KERAX KERAX5A |
| Aircraft | A321/M-SDE3FGHIRWY/LB1 |
Departure
| Time | 2026-05-07 10:00 |
|---|---|
| Airport | Göteborg Landvetter Airport (ESGG) |
Arrival
| Time | N/A |
|---|---|
| Airport | Frankfurt Main Airport (EDDF) |
| Time | Latitude | Longitude | Altitude | Speed | Heading |
|---|---|---|---|---|---|
| 2026-05-07 09:40 | 57.66934 | 12.29458 | 516 ft | 0 kts | 116° |
| 2026-05-07 09:46 | 57.66943 | 12.29422 | 516 ft | 4 kts | 107° |
| 2026-05-07 09:46 | 57.66948 | 12.29373 | 516 ft | 4 kts | 86° |
| 2026-05-07 09:47 | 57.66941 | 12.29327 | 516 ft | 4 kts | 52° |
| 2026-05-07 09:47 | 57.66930 | 12.29307 | 516 ft | 0 kts | 26° |
| 2026-05-07 09:50 | 57.66944 | 12.29320 | 516 ft | 3 kts | 24° |
| 2026-05-07 09:50 | 57.66959 | 12.29327 | 516 ft | 3 kts | 10° |
| 2026-05-07 09:51 | 57.66987 | 12.29281 | 516 ft | 6 kts | 303° |
| 2026-05-07 09:51 | 57.67000 | 12.29208 | 516 ft | 5 kts | 271° |
| 2026-05-07 09:51 | 57.66992 | 12.29149 | 516 ft | 4 kts | 242° |
| 2026-05-07 09:51 | 57.66971 | 12.29118 | 517 ft | 6 kts | 205° |
| 2026-05-07 09:52 | 57.66927 | 12.29082 | 516 ft | 6 kts | 206° |
| 2026-05-07 09:52 | 57.66880 | 12.29039 | 516 ft | 8 kts | 206° |
| 2026-05-07 09:52 | 57.66831 | 12.28995 | 516 ft | 7 kts | 205° |
| 2026-05-07 09:52 | 57.66791 | 12.28960 | 516 ft | 6 kts | 207° |
| 2026-05-07 09:53 | 57.66750 | 12.28920 | 516 ft | 8 kts | 207° |
| 2026-05-07 09:53 | 57.66688 | 12.28860 | 516 ft | 11 kts | 212° |
| 2026-05-07 09:53 | 57.66667 | 12.28730 | 513 ft | 12 kts | 264° |
| 2026-05-07 09:53 | 57.66608 | 12.28621 | 512 ft | 12 kts | 208° |
| 2026-05-07 09:54 | 57.66537 | 12.28558 | 512 ft | 11 kts | 206° |
| 2026-05-07 09:54 | 57.66473 | 12.28499 | 511 ft | 10 kts | 206° |
| 2026-05-07 09:54 | 57.66413 | 12.28445 | 511 ft | 10 kts | 206° |
| 2026-05-07 09:54 | 57.66336 | 12.28373 | 511 ft | 13 kts | 207° |
| 2026-05-07 09:55 | 57.66254 | 12.28299 | 510 ft | 13 kts | 206° |
| 2026-05-07 09:55 | 57.66176 | 12.28230 | 510 ft | 12 kts | 206° |
| 2026-05-07 09:55 | 57.66102 | 12.28163 | 509 ft | 12 kts | 206° |
| 2026-05-07 09:55 | 57.66033 | 12.28099 | 508 ft | 11 kts | 207° |
| 2026-05-07 09:56 | 57.65967 | 12.28039 | 508 ft | 10 kts | 205° |
| 2026-05-07 09:56 | 57.65904 | 12.27983 | 507 ft | 12 kts | 205° |
| 2026-05-07 09:56 | 57.65790 | 12.27877 | 506 ft | 24 kts | 206° |
| 2026-05-07 09:56 | 57.65638 | 12.27738 | 503 ft | 25 kts | 206° |
| 2026-05-07 09:57 | 57.65475 | 12.27591 | 501 ft | 27 kts | 206° |
| 2026-05-07 09:57 | 57.65302 | 12.27433 | 498 ft | 28 kts | 206° |
| 2026-05-07 09:57 | 57.65123 | 12.27271 | 490 ft | 29 kts | 206° |
| 2026-05-07 09:57 | 57.64970 | 12.27131 | 488 ft | 24 kts | 206° |
| 2026-05-07 09:58 | 57.64879 | 12.27029 | 482 ft | 12 kts | 244° |
| 2026-05-07 09:58 | 57.64906 | 12.26900 | 483 ft | 11 kts | 320° |
| 2026-05-07 09:58 | 57.64970 | 12.26836 | 485 ft | 10 kts | 344° |
| 2026-05-07 09:58 | 57.65029 | 12.26839 | 486 ft | 7 kts | 18° |
| 2026-05-07 09:59 | 57.65085 | 12.26887 | 487 ft | 17 kts | 25° |
| 2026-05-07 09:59 | 57.65421 | 12.27183 | 493 ft | 88 kts | 24° |
| 2026-05-07 09:59 | 57.66148 | 12.27834 | 509 ft | 141 kts | 26° |
| 2026-05-07 09:59 | 57.67134 | 12.28751 | 682 ft | 166 kts | 25° |
| 2026-05-07 10:00 | 57.68148 | 12.29714 | 1390 ft | 160 kts | 23° |
| 2026-05-07 10:00 | 57.69118 | 12.30602 | 2108 ft | 154 kts | 23° |
| 2026-05-07 10:00 | 57.70159 | 12.31513 | 2458 ft | 176 kts | 28° |
| 2026-05-07 10:00 | 57.70987 | 12.33358 | 2648 ft | 204 kts | 70° |
| 2026-05-07 10:01 | 57.70854 | 12.36086 | 2982 ft | 223 kts | 115° |
| 2026-05-07 10:01 | 57.70098 | 12.38655 | 3607 ft | 226 kts | 117° |
| 2026-05-07 10:01 | 57.69358 | 12.41247 | 4353 ft | 226 kts | 118° |
| 2026-05-07 10:01 | 57.68342 | 12.43502 | 5045 ft | 231 kts | 142° |
| 2026-05-07 10:02 | 57.66907 | 12.44972 | 5559 ft | 245 kts | 163° |
| 2026-05-07 10:02 | 57.65149 | 12.45535 | 5892 ft | 267 kts | 174° |
| 2026-05-07 10:02 | 57.63914 | 12.45815 | 6315 ft | 273 kts | 173° |
| 2026-05-07 10:02 | 57.62020 | 12.46257 | 7078 ft | 276 kts | 173° |
| 2026-05-07 10:03 | 57.60127 | 12.46560 | 7997 ft | 266 kts | 182° |
| 2026-05-07 10:03 | 57.58283 | 12.46564 | 8708 ft | 267 kts | 181° |
| 2026-05-07 10:03 | 57.56398 | 12.46655 | 9180 ft | 277 kts | 179° |
| 2026-05-07 10:03 | 57.54443 | 12.46805 | 9840 ft | 283 kts | 179° |
| 2026-05-07 10:04 | 57.52451 | 12.46976 | 10375 ft | 293 kts | 179° |
| 2026-05-07 10:04 | 57.50429 | 12.47152 | 11017 ft | 289 kts | 180° |
| 2026-05-07 10:04 | 57.48344 | 12.47326 | 11210 ft | 311 kts | 180° |
| 2026-05-07 10:04 | 57.46090 | 12.47507 | 11351 ft | 334 kts | 180° |
| 2026-05-07 10:05 | 57.43722 | 12.47699 | 11736 ft | 346 kts | 180° |
| 2026-05-07 10:05 | 57.41304 | 12.47897 | 12394 ft | 350 kts | 180° |
| 2026-05-07 10:05 | 57.38856 | 12.48097 | 13058 ft | 354 kts | 180° |
| 2026-05-07 10:05 | 57.36384 | 12.48297 | 13735 ft | 357 kts | 180° |
| 2026-05-07 10:06 | 57.33882 | 12.48497 | 14330 ft | 361 kts | 180° |
| 2026-05-07 10:06 | 57.31360 | 12.48698 | 14932 ft | 364 kts | 180° |
| 2026-05-07 10:06 | 57.28823 | 12.48896 | 15516 ft | 367 kts | 180° |
| 2026-05-07 10:06 | 57.26256 | 12.49095 | 16101 ft | 370 kts | 180° |
| 2026-05-07 10:07 | 57.23673 | 12.49292 | 16690 ft | 373 kts | 180° |
| 2026-05-07 10:07 | 57.21098 | 12.49485 | 17267 ft | 376 kts | 180° |
| 2026-05-07 10:07 | 57.18474 | 12.49680 | 17836 ft | 379 kts | 180° |
| 2026-05-07 10:07 | 57.15826 | 12.49883 | 18406 ft | 383 kts | 180° |
| 2026-05-07 10:08 | 57.13158 | 12.50096 | 18892 ft | 385 kts | 180° |
| 2026-05-07 10:08 | 57.10463 | 12.50308 | 19372 ft | 388 kts | 181° |
| 2026-05-07 10:08 | 57.07757 | 12.50520 | 19880 ft | 390 kts | 181° |
| 2026-05-07 10:08 | 57.05032 | 12.50733 | 20372 ft | 392 kts | 181° |
| 2026-05-07 10:09 | 57.02300 | 12.50946 | 20835 ft | 394 kts | 181° |
| 2026-05-07 10:09 | 56.99554 | 12.51157 | 21310 ft | 397 kts | 181° |
| 2026-05-07 10:09 | 56.96781 | 12.51375 | 21774 ft | 399 kts | 181° |
| 2026-05-07 10:09 | 56.93995 | 12.51592 | 22239 ft | 402 kts | 181° |
| 2026-05-07 10:10 | 56.91184 | 12.51808 | 22693 ft | 404 kts | 181° |
| 2026-05-07 10:10 | 56.88363 | 12.52026 | 23132 ft | 407 kts | 181° |
| 2026-05-07 10:10 | 56.85528 | 12.52246 | 23567 ft | 410 kts | 181° |
| 2026-05-07 10:10 | 56.82672 | 12.52464 | 23937 ft | 412 kts | 181° |
| 2026-05-07 10:11 | 56.79798 | 12.52676 | 24285 ft | 415 kts | 181° |
| 2026-05-07 10:11 | 56.76902 | 12.52891 | 24630 ft | 417 kts | 181° |
| 2026-05-07 10:11 | 56.73992 | 12.53110 | 24956 ft | 420 kts | 180° |
| 2026-05-07 10:11 | 56.71062 | 12.53333 | 25281 ft | 423 kts | 180° |
| 2026-05-07 10:12 | 56.68137 | 12.53557 | 25607 ft | 426 kts | 180° |
| 2026-05-07 10:12 | 56.65166 | 12.53779 | 25938 ft | 428 kts | 180° |
| 2026-05-07 10:12 | 56.62171 | 12.53999 | 26267 ft | 431 kts | 180° |
| 2026-05-07 10:12 | 56.59165 | 12.54218 | 26603 ft | 433 kts | 180° |
| 2026-05-07 10:13 | 56.56147 | 12.54441 | 26916 ft | 435 kts | 180° |
| 2026-05-07 10:13 | 56.53111 | 12.54669 | 27235 ft | 438 kts | 180° |
| 2026-05-07 10:13 | 56.50060 | 12.54902 | 27544 ft | 440 kts | 180° |
| 2026-05-07 10:13 | 56.46986 | 12.55136 | 27829 ft | 443 kts | 180° |
| 2026-05-07 10:14 | 56.43902 | 12.55370 | 28135 ft | 445 kts | 180° |
| 2026-05-07 10:14 | 56.40800 | 12.55604 | 28434 ft | 447 kts | 180° |
| 2026-05-07 10:14 | 56.37679 | 12.55839 | 28722 ft | 450 kts | 180° |
| 2026-05-07 10:14 | 56.34550 | 12.56074 | 29010 ft | 452 kts | 180° |
| 2026-05-07 10:15 | 56.31398 | 12.56310 | 29284 ft | 454 kts | 180° |
| 2026-05-07 10:15 | 56.28233 | 12.56544 | 29564 ft | 456 kts | 180° |
| 2026-05-07 10:15 | 56.25051 | 12.56777 | 29841 ft | 458 kts | 180° |
| 2026-05-07 10:15 | 56.21857 | 12.57013 | 30126 ft | 460 kts | 180° |
| 2026-05-07 10:16 | 56.18652 | 12.57252 | 30397 ft | 461 kts | 179° |
| 2026-05-07 10:16 | 56.15459 | 12.57128 | 30754 ft | 458 kts | 187° |
| 2026-05-07 10:16 | 56.12300 | 12.56530 | 31114 ft | 456 kts | 188° |
| 2026-05-07 10:16 | 56.09143 | 12.55924 | 31474 ft | 455 kts | 188° |
| 2026-05-07 10:17 | 56.05995 | 12.55315 | 31836 ft | 454 kts | 188° |
| 2026-05-07 10:17 | 56.02900 | 12.54713 | 32194 ft | 453 kts | 188° |
| 2026-05-07 10:17 | 55.99768 | 12.54110 | 32552 ft | 452 kts | 188° |
| 2026-05-07 10:17 | 55.96639 | 12.53513 | 32909 ft | 451 kts | 188° |
| 2026-05-07 10:18 | 55.93515 | 12.52921 | 33248 ft | 450 kts | 188° |
| 2026-05-07 10:18 | 55.90415 | 12.52334 | 33771 ft | 445 kts | 189° |
| 2026-05-07 10:18 | 55.87353 | 12.51754 | 34222 ft | 441 kts | 189° |
| 2026-05-07 10:18 | 55.84308 | 12.51180 | 34530 ft | 439 kts | 189° |
| 2026-05-07 10:19 | 55.81270 | 12.50609 | 34797 ft | 439 kts | 189° |
| 2026-05-07 10:19 | 55.78231 | 12.50038 | 35024 ft | 439 kts | 189° |
| 2026-05-07 10:19 | 55.75200 | 12.49470 | 35097 ft | 437 kts | 189° |
| 2026-05-07 10:20 | 55.69171 | 12.48337 | 35113 ft | 434 kts | 189° |
| 2026-05-07 10:20 | 55.63182 | 12.47206 | 35116 ft | 432 kts | 189° |
| 2026-05-07 10:21 | 55.57204 | 12.46088 | 35106 ft | 431 kts | 189° |
| 2026-05-07 10:21 | 55.51265 | 12.44989 | 35096 ft | 431 kts | 189° |
| 2026-05-07 10:22 | 55.45299 | 12.43887 | 35099 ft | 431 kts | 188° |
| 2026-05-07 10:22 | 55.39321 | 12.42780 | 35109 ft | 431 kts | 189° |
| 2026-05-07 10:23 | 55.33348 | 12.41666 | 35110 ft | 432 kts | 189° |
| 2026-05-07 10:23 | 55.27370 | 12.40564 | 35102 ft | 432 kts | 189° |
| 2026-05-07 10:24 | 55.21396 | 12.39467 | 35101 ft | 432 kts | 188° |
| 2026-05-07 10:24 | 55.15421 | 12.38380 | 35095 ft | 432 kts | 188° |
| 2026-05-07 10:25 | 55.09446 | 12.37291 | 35103 ft | 432 kts | 188° |
| 2026-05-07 10:25 | 55.03462 | 12.36196 | 35106 ft | 432 kts | 188° |
| 2026-05-07 10:26 | 54.97483 | 12.35110 | 35107 ft | 432 kts | 188° |
| 2026-05-07 10:26 | 54.91492 | 12.34038 | 35100 ft | 432 kts | 188° |
| 2026-05-07 10:27 | 54.85511 | 12.32964 | 35097 ft | 432 kts | 188° |
| 2026-05-07 10:27 | 54.79564 | 12.31899 | 35101 ft | 432 kts | 188° |
| 2026-05-07 10:28 | 54.76406 | 12.31339 | 35102 ft | 432 kts | 188° |
| 2026-05-07 10:38 | 54.75812 | 12.31233 | 33929 ft | 433 kts | 186° |